Terminal Aerodrome Forecast
Issued by NWS

Current Version | Previous Version | Graphics & Text | Print | Product List | Glossary On
Versions: 1 2 3 4 5 6 7 8 9 10 11 12 13 14 15 16 17 18 19 20 21 22 23 24 25
000
FTUS41 KPBZ 260400 AAA
TAFMGW
TAF AMD
KMGW 260455Z 2605/2624 03005KT 1SM -RASN BR OVC001
     FM260600 04005KT 1SM -SN BR OVC007
      TEMPO 2606/2609 1/2SM SN OVC003
     FM261200 03006KT 2SM -SN OVC007
     FM262200 01005KT 3SM -SHSN OVC010=

USA.gov is the U.S. government's official web portal to all federal, state and local government web resources and services.